createdAt,value
2018-02-09T00:00:42.050Z,72.60
2018-02-09T00:03:09.689Z,72.70
2018-02-09T00:05:37.420Z,72.70
2018-02-09T00:08:05.814Z,72.70
2018-02-09T00:10:33.438Z,72.70
2018-02-09T00:13:01.065Z,72.70
2018-02-09T00:15:28.690Z,72.70
2018-02-09T00:17:57.108Z,73.20
2018-02-09T00:20:24.728Z,72.80
2018-02-09T00:22:53.215Z,73.10
2018-02-09T00:25:20.835Z,73.00
2018-02-09T00:27:48.479Z,72.90
2018-02-09T00:30:16.135Z,72.80
2018-02-09T00:32:44.663Z,72.60
2018-02-09T00:35:12.660Z,72.60
2018-02-09T00:37:40.285Z,72.50
2018-02-09T00:40:07.938Z,73.00
2018-02-09T00:42:35.592Z,72.40
2018-02-09T00:45:03.179Z,72.50
2018-02-09T00:47:30.861Z,72.20
2018-02-09T00:49:58.501Z,72.30
2018-02-09T00:52:26.915Z,72.30
2018-02-09T00:54:54.543Z,72.20
2018-02-09T00:57:22.958Z,71.80
2018-02-09T00:59:50.608Z,71.80
2018-02-09T01:02:19.001Z,71.90
2018-02-09T01:04:46.658Z,71.90
2018-02-09T01:07:15.101Z,71.90
2018-02-09T01:09:42.949Z,71.90
2018-02-09T01:12:10.602Z,71.90
2018-02-09T01:14:38.214Z,71.80
2018-02-09T01:17:05.854Z,71.90
2018-02-09T01:19:33.482Z,72.00
2018-02-09T01:22:01.935Z,71.90
2018-02-09T01:24:30.332Z,71.70
2018-02-09T01:26:57.974Z,71.70
2018-02-09T01:29:25.597Z,71.60
2018-02-09T01:31:53.208Z,71.70
2018-02-09T01:34:20.866Z,71.60
2018-02-09T01:36:48.485Z,71.70
2018-02-09T01:39:16.892Z,71.90
2018-02-09T01:41:44.601Z,71.90
2018-02-09T01:44:12.194Z,71.90
2018-02-09T01:46:40.623Z,72.20
2018-02-09T01:49:08.247Z,72.10
2018-02-09T01:51:36.689Z,72.20
2018-02-09T01:54:04.296Z,72.20
2018-02-09T01:56:32.732Z,72.20
2018-02-09T01:59:00.340Z,72.60
2018-02-09T02:01:28.718Z,72.30
2018-02-09T02:03:57.126Z,72.30
2018-02-09T02:06:24.763Z,72.30
2018-02-09T02:08:52.399Z,72.30
2018-02-09T02:11:20.044Z,72.10
2018-02-09T02:13:47.661Z,72.10
2018-02-09T02:16:15.309Z,72.20
2018-02-09T02:18:42.924Z,72.30
2018-02-09T02:21:10.589Z,72.40
2018-02-09T02:23:38.221Z,72.50
2018-02-09T02:26:05.837Z,72.50
2018-02-09T02:28:33.581Z,72.80
2018-02-09T02:31:01.965Z,72.60
2018-02-09T02:33:30.381Z,72.50
2018-02-09T02:35:58.054Z,72.50
2018-02-09T02:38:25.692Z,72.50
2018-02-09T02:40:53.473Z,72.50
2018-02-09T02:43:21.052Z,72.70
2018-02-09T02:45:48.676Z,72.70
2018-02-09T02:48:17.055Z,73.10
2018-02-09T02:50:44.832Z,72.50
2018-02-09T02:53:13.228Z,72.60
2018-02-09T02:55:40.854Z,72.60
2018-02-09T02:58:08.523Z,72.60
2018-02-09T03:00:36.142Z,72.60
2018-02-09T03:03:03.797Z,72.50
2018-02-09T03:05:31.445Z,72.50
2018-02-09T03:07:59.872Z,72.70
2018-02-09T03:10:27.527Z,72.70
2018-02-09T03:12:55.136Z,72.60
2018-02-09T03:15:22.781Z,72.50
2018-02-09T03:17:50.411Z,72.50
2018-02-09T03:20:18.821Z,72.50
2018-02-09T03:22:46.448Z,72.50
2018-02-09T03:25:14.826Z,72.70
2018-02-09T03:27:43.248Z,72.80
2018-02-09T03:30:10.867Z,72.70
2018-02-09T03:32:38.508Z,72.70
2018-02-09T03:35:06.139Z,72.60
2018-02-09T03:37:33.794Z,72.50
2018-02-09T03:40:02.206Z,72.50
2018-02-09T03:42:29.940Z,72.50
2018-02-09T03:44:58.352Z,72.70
2018-02-09T03:47:25.973Z,72.60
2018-02-09T03:49:53.633Z,72.70
2018-02-09T03:52:21.265Z,72.80
2018-02-09T03:54:48.876Z,72.90
2018-02-09T03:57:16.553Z,73.00
2018-02-09T03:59:44.996Z,73.10
2018-02-09T04:02:12.651Z,73.00
2018-02-09T04:04:40.323Z,73.00
2018-02-09T04:07:07.959Z,72.90
2018-02-09T04:09:35.713Z,73.00
2018-02-09T04:12:04.223Z,72.80
2018-02-09T04:14:31.835Z,72.80
2018-02-09T04:16:59.471Z,72.80
2018-02-09T04:19:27.096Z,72.80
2018-02-09T04:21:55.495Z,72.80
2018-02-09T04:24:23.176Z,72.80
2018-02-09T04:26:50.805Z,72.80
2018-02-09T04:29:19.196Z,73.30
2018-02-09T04:31:47.591Z,72.80
2018-02-09T04:34:15.963Z,72.80
2018-02-09T04:36:44.404Z,72.90
2018-02-09T04:39:12.017Z,72.90
2018-02-09T04:41:40.430Z,72.80
2018-02-09T04:44:08.127Z,72.80
2018-02-09T04:46:35.762Z,72.60
2018-02-09T04:49:03.426Z,72.80
2018-02-09T04:51:31.052Z,72.90
2018-02-09T04:54:18.139Z,72.50
2018-02-09T04:56:45.777Z,73.00
2018-02-09T04:59:13.792Z,72.80
2018-02-09T05:01:41.390Z,72.90
2018-02-09T05:04:09.809Z,72.90
2018-02-09T05:06:37.519Z,72.80
2018-02-09T05:09:05.926Z,73.00
2018-02-09T05:11:33.584Z,73.00
2018-02-09T05:14:01.252Z,73.10
2018-02-09T05:16:29.273Z,72.90
2018-02-09T05:18:57.699Z,72.80
2018-02-09T05:21:25.333Z,72.80
2018-02-09T05:23:54.014Z,72.90
2018-02-09T05:26:21.626Z,72.90
2018-02-09T05:28:49.267Z,72.90
2018-02-09T05:31:17.650Z,72.80
2018-02-09T05:33:45.270Z,72.90
2018-02-09T05:36:12.904Z,72.80
2018-02-09T05:38:41.294Z,73.00
2018-02-09T05:41:09.704Z,72.90
2018-02-09T05:43:37.303Z,72.90
2018-02-09T05:46:04.939Z,72.80
2018-02-09T05:48:32.551Z,72.90
2018-02-09T05:51:00.186Z,73.00
2018-02-09T05:53:27.792Z,73.00
2018-02-09T05:55:56.171Z,73.20
2018-02-09T05:58:23.791Z,73.20
2018-02-09T06:00:51.422Z,73.10
2018-02-09T06:03:19.809Z,73.10
2018-02-09T06:05:47.434Z,73.10
2018-02-09T06:08:15.046Z,73.00
2018-02-09T06:10:42.676Z,73.00
2018-02-09T06:13:11.068Z,73.00
2018-02-09T06:15:39.516Z,73.00
2018-02-09T06:18:07.111Z,73.00
2018-02-09T06:20:34.721Z,72.80
2018-02-09T06:23:02.343Z,72.80
2018-02-09T06:25:29.952Z,72.80
2018-02-09T06:27:57.934Z,72.80
2018-02-09T06:30:25.546Z,72.70
2018-02-09T06:32:54.679Z,72.50
2018-02-09T06:35:22.316Z,72.50
2018-02-09T06:37:49.935Z,72.50
2018-02-09T06:40:17.573Z,72.20
2018-02-09T06:42:45.964Z,72.30
2018-02-09T06:45:13.608Z,72.30
2018-02-09T06:47:41.978Z,72.40
2018-02-09T06:50:11.090Z,72.40
2018-02-09T06:52:39.486Z,72.60
2018-02-09T06:55:07.870Z,72.50
2018-02-09T06:57:36.379Z,72.30
2018-02-09T07:00:03.968Z,72.30
2018-02-09T07:02:31.588Z,72.30
2018-02-09T07:05:00.007Z,72.80
2018-02-09T07:07:27.612Z,72.20
2018-02-09T07:09:56.259Z,72.20
2018-02-09T07:12:23.874Z,72.20
2018-02-09T07:14:51.491Z,72.10
2018-02-09T07:17:20.056Z,72.20
2018-02-09T07:19:47.684Z,72.20
2018-02-09T07:22:16.813Z,72.20
2018-02-09T07:24:45.188Z,72.30
2018-02-09T07:27:13.707Z,72.40
2018-02-09T07:29:41.455Z,72.40
2018-02-09T07:32:09.091Z,72.30
2018-02-09T07:34:36.715Z,72.30
2018-02-09T07:37:04.340Z,72.20
2018-02-09T07:39:32.732Z,72.20
2018-02-09T07:42:01.097Z,72.10
2018-02-09T07:44:28.727Z,72.10
2018-02-09T07:46:56.419Z,72.20
2018-02-09T07:49:24.208Z,72.10
2018-02-09T07:51:52.596Z,72.10
2018-02-09T07:54:20.974Z,72.00
2018-02-09T07:56:49.475Z,72.20
2018-02-09T07:59:17.083Z,72.10
2018-02-09T08:01:44.706Z,72.10
2018-02-09T08:04:12.321Z,72.00
2018-02-09T08:06:40.021Z,71.90
2018-02-09T08:09:08.409Z,71.80
2018-02-09T08:11:36.773Z,71.70
2018-02-09T08:14:05.260Z,71.90
2018-02-09T08:16:34.478Z,71.90
2018-02-09T08:19:02.862Z,71.80
2018-02-09T08:21:31.416Z,71.80
2018-02-09T08:24:01.101Z,71.70
2018-02-09T08:26:28.795Z,71.70
2018-02-09T08:28:56.403Z,71.60
2018-02-09T08:31:24.788Z,71.50
2018-02-09T08:33:53.248Z,71.40
2018-02-09T08:36:20.872Z,71.40
2018-02-09T08:38:48.458Z,71.10
2018-02-09T08:41:16.104Z,71.20
2018-02-09T08:43:43.696Z,71.20
2018-02-09T08:46:11.297Z,71.20
2018-02-09T08:48:39.844Z,71.30
2018-02-09T08:51:07.502Z,71.30
2018-02-09T08:53:35.114Z,71.10
2018-02-09T08:56:02.776Z,71.10
2018-02-09T08:58:31.162Z,70.60
2018-02-09T09:00:59.550Z,70.70
2018-02-09T09:03:27.902Z,70.80
2018-02-09T09:05:57.030Z,70.50
2018-02-09T09:08:25.453Z,70.30
2018-02-09T09:10:53.072Z,70.30
2018-02-09T09:13:20.681Z,70.40
2018-02-09T09:15:48.573Z,70.50
2018-02-09T09:18:16.154Z,70.90
2018-02-09T09:20:43.760Z,70.50
2018-02-09T09:23:11.498Z,70.20
2018-02-09T09:25:39.093Z,70.30
2018-02-09T09:28:07.487Z,69.20
2018-02-09T09:30:35.097Z,69.20
2018-02-09T09:33:02.755Z,69.20
2018-02-09T09:35:30.370Z,69.10
2018-02-09T09:37:57.980Z,69.10
2018-02-09T09:40:25.609Z,69.20
2018-02-09T09:42:53.204Z,68.90
2018-02-09T09:45:21.175Z,69.00
2018-02-09T09:47:48.781Z,69.10
2018-02-09T09:50:16.400Z,69.00
2018-02-09T09:52:44.010Z,68.50
2018-02-09T09:55:11.635Z,68.50
2018-02-09T09:57:39.262Z,68.50
2018-02-09T10:00:07.627Z,68.30
2018-02-09T10:02:40.551Z,68.30
2018-02-09T10:05:08.188Z,68.30
2018-02-09T10:07:35.818Z,67.90
2018-02-09T10:10:03.412Z,67.00
2018-02-09T10:12:31.029Z,66.00
2018-02-09T10:14:58.674Z,66.00
2018-02-09T10:17:26.278Z,64.90
2018-02-09T10:19:53.988Z,65.60
2018-02-09T10:22:22.355Z,63.70
2018-02-09T10:24:51.501Z,64.30
2018-02-09T10:27:19.131Z,64.30
2018-02-09T10:29:46.722Z,64.50
2018-02-09T10:32:14.344Z,63.70
2018-02-09T10:34:41.970Z,63.70
2018-02-09T10:37:09.590Z,62.00
2018-02-09T10:39:37.300Z,62.50
2018-02-09T10:42:04.918Z,62.20
2018-02-09T10:44:34.037Z,60.70
2018-02-09T10:47:02.486Z,60.60
2018-02-09T10:49:30.109Z,60.60
2018-02-09T10:51:57.722Z,60.50
2018-02-09T10:54:25.354Z,61.30
2018-02-09T10:56:52.970Z,61.70
2018-02-09T10:59:21.362Z,61.60
2018-02-09T11:01:49.278Z,61.50
2018-02-09T11:04:16.936Z,61.50
2018-02-09T11:06:44.561Z,61.70
2018-02-09T11:09:12.936Z,61.90
2018-02-09T11:11:40.710Z,61.80
2018-02-09T11:14:09.104Z,60.90
2018-02-09T11:16:36.731Z,60.90
2018-02-09T11:19:04.357Z,61.30
2018-02-09T11:21:32.001Z,60.50
2018-02-09T11:23:59.600Z,59.30
2018-02-09T11:26:27.223Z,59.80
2018-02-09T11:28:56.466Z,60.70
2018-02-09T11:31:24.127Z,60.70
2018-02-09T11:33:51.721Z,60.40
2018-02-09T11:36:19.315Z,60.50
2018-02-09T11:38:48.553Z,60.60
2018-02-09T11:41:16.940Z,60.10
2018-02-09T11:43:45.347Z,59.70
2018-02-09T11:46:13.737Z,59.80
2018-02-09T11:48:41.344Z,59.90
2018-02-09T11:51:08.979Z,60.10
2018-02-09T11:53:36.596Z,60.00
2018-02-09T11:56:05.075Z,59.60
2018-02-09T11:58:33.637Z,59.60
2018-02-09T12:01:02.035Z,59.80
2018-02-09T12:03:30.467Z,59.60
2018-02-09T12:05:58.153Z,59.60
2018-02-09T12:08:25.765Z,60.00
2018-02-09T12:10:54.140Z,59.80
2018-02-09T12:13:21.786Z,59.80
2018-02-09T12:15:49.410Z,59.00
2018-02-09T12:18:17.145Z,59.50
2018-02-09T12:20:45.531Z,59.20
2018-02-09T12:23:13.942Z,59.20
2018-02-09T12:25:41.569Z,59.20
2018-02-09T12:28:09.934Z,58.70
2018-02-09T12:30:37.568Z,58.80
2018-02-09T12:33:05.178Z,58.10
2018-02-09T12:35:32.848Z,57.20
2018-02-09T12:38:00.463Z,57.60
2018-02-09T12:40:28.128Z,57.50
2018-02-09T12:42:55.758Z,56.80
2018-02-09T12:45:24.153Z,57.70
2018-02-09T12:47:52.697Z,57.90
2018-02-09T12:50:20.369Z,57.80
2018-02-09T12:52:48.053Z,57.60
2018-02-09T12:55:15.655Z,57.60
2018-02-09T12:57:43.255Z,57.80
2018-02-09T13:00:10.865Z,58.40
2018-02-09T13:02:39.244Z,58.80
2018-02-09T13:05:07.665Z,57.90
2018-02-09T13:07:35.512Z,57.90
2018-02-09T13:10:03.915Z,59.20
2018-02-09T13:12:43.407Z,59.20
2018-02-09T13:15:11.078Z,59.50
2018-02-09T13:17:38.696Z,59.50
2018-02-09T13:20:06.334Z,59.70
2018-02-09T13:22:46.554Z,58.50
2018-02-09T13:25:14.190Z,58.40
2018-02-09T13:27:41.807Z,57.80
2018-02-09T13:30:10.188Z,58.90
2018-02-09T13:32:50.414Z,59.90
2018-02-09T13:35:18.047Z,59.80
2018-02-09T13:37:45.822Z,59.70
2018-02-09T13:40:13.459Z,59.10
2018-02-09T13:42:41.884Z,59.70
2018-02-09T13:45:09.493Z,59.70
2018-02-09T13:47:37.334Z,60.00
2018-02-09T13:50:04.959Z,59.90
2018-02-09T13:52:32.583Z,60.10
2018-02-09T13:55:00.219Z,59.80
2018-02-09T13:57:27.820Z,60.20
2018-02-09T13:59:55.479Z,60.50
2018-02-09T14:02:23.075Z,60.60
2018-02-09T14:04:50.742Z,60.80
2018-02-09T14:07:18.400Z,60.80
2018-02-09T14:09:46.838Z,61.10
2018-02-09T14:12:14.437Z,60.50
2018-02-09T14:14:42.816Z,61.10
2018-02-09T14:17:10.868Z,61.10
2018-02-09T14:19:38.500Z,61.10
2018-02-09T14:22:06.127Z,61.10
2018-02-09T14:24:33.742Z,61.40
2018-02-09T14:27:01.342Z,60.60
2018-02-09T14:29:29.023Z,59.70
2018-02-09T14:31:56.606Z,59.80
2018-02-09T14:34:25.209Z,60.80
2018-02-09T14:36:52.964Z,60.80
2018-02-09T14:39:21.335Z,61.70
2018-02-09T14:41:49.731Z,62.80
2018-02-09T14:44:18.139Z,62.50
2018-02-09T14:46:46.148Z,62.50
2018-02-09T14:49:13.794Z,62.80
2018-02-09T14:51:41.500Z,63.00
2018-02-09T14:54:09.142Z,62.60
2018-02-09T14:56:37.493Z,62.20
2018-02-09T14:59:05.244Z,62.00
2018-02-09T15:01:33.619Z,62.30
2018-02-09T15:04:02.005Z,62.30
2018-02-09T15:06:30.413Z,62.80
2018-02-09T15:08:58.050Z,62.80
2018-02-09T15:11:26.445Z,63.70
2018-02-09T15:13:54.813Z,63.40
2018-02-09T15:16:23.196Z,63.60
2018-02-09T15:18:51.579Z,63.90
2018-02-09T15:21:19.979Z,64.30
2018-02-09T15:23:48.349Z,64.20
2018-02-09T15:26:16.738Z,64.00
2018-02-09T15:28:45.376Z,64.10
2018-02-09T15:31:12.985Z,64.10
2018-02-09T15:33:41.408Z,64.30
2018-02-09T15:36:09.034Z,64.20
2018-02-09T15:38:37.422Z,64.40
2018-02-09T15:41:05.802Z,64.60
2018-02-09T15:43:34.290Z,64.40
2018-02-09T15:46:02.729Z,64.60
2018-02-09T15:48:30.353Z,64.50
2018-02-09T15:50:58.774Z,66.00
2018-02-09T15:53:26.388Z,66.10
2018-02-09T15:55:54.915Z,63.70
2018-02-09T15:58:22.588Z,63.70
2018-02-09T16:00:50.384Z,63.70
2018-02-09T16:03:18.066Z,63.70
2018-02-09T16:05:45.687Z,63.80
2018-02-09T16:08:14.099Z,64.80
2018-02-09T16:10:41.764Z,64.80
2018-02-09T16:13:09.438Z,64.60
2018-02-09T16:15:38.635Z,65.20
2018-02-09T16:18:06.324Z,65.20
2018-02-09T16:20:34.787Z,65.00
2018-02-09T16:23:03.929Z,65.10
2018-02-09T16:25:31.868Z,65.10
2018-02-09T16:27:59.515Z,65.40
2018-02-09T16:30:27.188Z,65.30
2018-02-09T16:32:54.859Z,65.60
2018-02-09T16:35:22.471Z,65.80
2018-02-09T16:37:50.166Z,65.70
2018-02-09T16:40:18.630Z,65.70
2018-02-09T16:42:46.309Z,65.70
2018-02-09T16:45:14.079Z,65.70
2018-02-09T16:47:41.713Z,65.90
2018-02-09T16:50:10.159Z,66.20
2018-02-09T16:52:37.770Z,66.20
2018-02-09T16:55:06.629Z,66.40
2018-02-09T16:57:34.273Z,66.40
2018-02-09T17:00:01.961Z,66.50
2018-02-09T17:02:29.873Z,66.50
2018-02-09T17:04:57.646Z,67.00
2018-02-09T17:07:25.325Z,67.00
2018-02-09T17:09:52.959Z,66.70
2018-02-09T17:12:21.439Z,66.90
2018-02-09T17:14:49.130Z,66.90
2018-02-09T17:17:16.771Z,66.90
2018-02-09T17:19:45.316Z,67.00
2018-02-09T17:22:12.983Z,66.90
2018-02-09T17:24:40.660Z,66.90
2018-02-09T17:27:08.352Z,66.80
2018-02-09T17:29:37.015Z,66.50
2018-02-09T17:32:04.758Z,66.30
2018-02-09T17:34:32.437Z,66.70
2018-02-09T17:37:00.350Z,66.80
2018-02-09T17:39:28.038Z,66.80
2018-02-09T17:41:56.508Z,67.30
2018-02-09T17:44:24.227Z,67.20
2018-02-09T17:46:52.588Z,67.80
2018-02-09T17:49:20.276Z,67.40
2018-02-09T17:51:48.049Z,67.30
2018-02-09T17:54:15.756Z,67.30
2018-02-09T17:56:44.918Z,67.30
2018-02-09T17:59:12.657Z,67.30
2018-02-09T18:01:41.099Z,67.50
2018-02-09T18:04:08.802Z,67.40
2018-02-09T18:06:37.239Z,67.30
2018-02-09T18:09:04.901Z,67.30
2018-02-09T18:11:32.621Z,67.30
2018-02-09T18:14:00.277Z,67.40
2018-02-09T18:16:28.690Z,67.60
2018-02-09T18:18:56.333Z,67.50
2018-02-09T18:21:24.739Z,67.60
2018-02-09T18:23:52.752Z,67.40
2018-02-09T18:26:20.430Z,67.60
2018-02-09T18:28:48.090Z,68.20
2018-02-09T18:31:15.776Z,67.70
2018-02-09T18:33:43.421Z,67.70
2018-02-09T18:36:11.155Z,67.80
2018-02-09T18:38:38.871Z,67.90
2018-02-09T18:41:08.161Z,68.10
2018-02-09T18:43:35.869Z,68.10
2018-02-09T18:46:05.284Z,68.00
2018-02-09T18:48:32.952Z,68.00
2018-02-09T18:51:01.500Z,67.70
2018-02-09T18:53:29.233Z,67.70
2018-02-09T18:55:56.907Z,67.70
2018-02-09T18:58:24.558Z,67.80
2018-02-09T19:00:52.230Z,67.80
2018-02-09T19:03:19.888Z,68.10
2018-02-09T19:05:47.567Z,67.70
2018-02-09T19:08:15.300Z,67.60
2018-02-09T19:10:43.726Z,68.10
2018-02-09T19:13:11.408Z,67.60
2018-02-09T19:15:39.059Z,67.60
2018-02-09T19:18:06.777Z,67.70
2018-02-09T19:20:35.636Z,68.00
2018-02-09T19:23:03.374Z,67.60
2018-02-09T19:25:32.133Z,67.60
2018-02-09T19:28:00.652Z,67.40
2018-02-09T19:30:29.083Z,67.30
2018-02-09T19:32:57.551Z,67.00
2018-02-09T19:35:25.353Z,67.00
2018-02-09T19:37:54.029Z,66.80
2018-02-09T19:40:22.486Z,67.10
2018-02-09T19:42:50.344Z,67.10
2018-02-09T19:45:18.507Z,66.40
2018-02-09T19:47:46.306Z,66.80
2018-02-09T19:50:14.036Z,67.10
2018-02-09T19:52:43.282Z,67.50
2018-02-09T19:55:11.005Z,67.40
2018-02-09T19:57:39.123Z,67.20
2018-02-09T20:00:07.904Z,67.30
2018-02-09T20:02:36.408Z,67.30
2018-02-09T20:05:04.198Z,67.20
2018-02-09T20:07:34.600Z,67.50
2018-02-09T20:10:02.400Z,67.40
2018-02-09T20:12:31.708Z,67.80
2018-02-09T20:15:00.595Z,67.40
2018-02-09T20:17:29.138Z,67.70
2018-02-09T20:19:57.009Z,67.70
2018-02-09T20:22:24.740Z,67.80
2018-02-09T20:24:53.275Z,68.20
2018-02-09T20:27:21.378Z,68.20
2018-02-09T20:29:50.981Z,68.20
2018-02-09T20:32:19.104Z,68.20
2018-02-09T20:34:47.643Z,68.50
2018-02-09T20:37:15.593Z,68.50
2018-02-09T20:39:45.027Z,68.50
2018-02-09T20:42:13.795Z,68.50
2018-02-09T20:44:41.898Z,68.40
2018-02-09T20:47:11.188Z,68.70
2018-02-09T20:49:40.275Z,68.60
2018-02-09T20:52:08.063Z,68.60
2018-02-09T20:54:36.116Z,68.90
2018-02-09T20:57:03.993Z,68.80
2018-02-09T20:59:31.776Z,68.80
2018-02-09T21:01:59.617Z,68.80
2018-02-09T21:04:27.369Z,68.60
2018-02-09T21:06:55.889Z,68.70
2018-02-09T21:09:23.784Z,68.70
2018-02-09T21:11:51.550Z,68.80
2018-02-09T21:14:19.306Z,68.70
2018-02-09T21:16:47.268Z,68.50
2018-02-09T21:19:15.623Z,68.50
2018-02-09T21:21:43.385Z,68.40
2018-02-09T21:24:11.910Z,68.60
2018-02-09T21:26:40.066Z,68.60
2018-02-09T21:29:07.768Z,69.10
2018-02-09T21:31:35.515Z,69.10
2018-02-09T21:34:03.254Z,69.30
2018-02-09T21:36:31.768Z,68.70
2018-02-09T21:38:59.514Z,68.70
2018-02-09T21:41:28.128Z,68.90
2018-02-09T21:43:55.851Z,68.90
2018-02-09T21:46:24.395Z,68.60
2018-02-09T21:48:52.044Z,68.70
2018-02-09T21:51:19.744Z,68.60
2018-02-09T21:53:47.381Z,69.00
2018-02-09T21:56:15.041Z,69.10
2018-02-09T21:58:42.661Z,68.90
2018-02-09T22:01:10.354Z,68.90
2018-02-09T22:03:38.829Z,68.90
2018-02-09T22:06:06.450Z,68.80
2018-02-09T22:08:34.104Z,69.60
2018-02-09T22:11:01.713Z,69.00
2018-02-09T22:13:29.716Z,69.10
2018-02-09T22:15:58.109Z,69.10
2018-02-09T22:18:25.747Z,69.00
2018-02-09T22:20:54.917Z,69.20
2018-02-09T22:23:22.555Z,69.10
2018-02-09T22:25:50.323Z,69.10
2018-02-09T22:28:17.938Z,69.10
2018-02-09T22:30:46.761Z,69.00
2018-02-09T22:33:15.158Z,69.10
2018-02-09T22:35:42.788Z,69.00
2018-02-09T22:38:10.448Z,69.00
2018-02-09T22:40:38.098Z,68.80
2018-02-09T22:43:06.156Z,68.90
2018-02-09T22:45:33.778Z,69.00
2018-02-09T22:48:01.557Z,68.90
2018-02-09T22:50:30.035Z,68.80
2018-02-09T22:52:58.436Z,68.80
2018-02-09T22:55:26.842Z,68.50
2018-02-09T22:57:54.461Z,68.50
2018-02-09T23:00:22.065Z,68.60
2018-02-09T23:02:49.696Z,69.10
2018-02-09T23:05:17.357Z,68.60
2018-02-09T23:07:46.479Z,68.90
2018-02-09T23:10:14.881Z,69.10
2018-02-09T23:12:42.479Z,69.10
2018-02-09T23:15:10.093Z,69.20
2018-02-09T23:17:38.472Z,68.90
2018-02-09T23:20:06.903Z,68.90
2018-02-09T23:22:34.803Z,68.80
2018-02-09T23:25:02.464Z,69.00
2018-02-09T23:27:30.096Z,69.10
2018-02-09T23:29:57.789Z,68.90
2018-02-09T23:32:25.419Z,68.60
2018-02-09T23:34:53.047Z,69.10
2018-02-09T23:37:21.457Z,68.80
2018-02-09T23:39:49.826Z,68.60
2018-02-09T23:42:18.685Z,68.40
2018-02-09T23:44:46.299Z,68.40
2018-02-09T23:47:14.843Z,68.30
2018-02-09T23:49:42.541Z,68.30
2018-02-09T23:52:10.911Z,68.50
2018-02-09T23:54:39.312Z,68.70
2018-02-09T23:57:07.691Z,68.50
2018-02-09T23:59:36.112Z,68.70
